Latest Weather Observations for Stawell

IDV60801

Issued at 11:05 am EDT Friday 28 November 2014 (issued every 30 minutes, with the page automatically refreshed every 10 minutes)

About weather observations | Map of weather stations | Latest weather observations for VIC | Other Formats
Station Details ID: 079105 Name: STAWELL AERODROME Lat: -37.07 Lon: 142.74 Height: 235.36 m
Data from the previous 72 hours. | See also: Recent months at Stawell
Date/Time
EDT
Temp
°C
App
Temp
°C
Dew
Point
Rel
Hum
%
Delta-T
°C
Wind Press
QNH
hPa
Press
MSL
hPa
Rain
since 9 am
mm
Dir
 
Spd
km/h
Gust
km/h
Spd
kts
Gust
kts
28/11:00am 18.2 13.8 4.7 41 6.5 S 17 22 9 12 1020.8 - 0.0
28/10:30am 17.2 12.6 5.8 47 5.6 S 19 24 10 13 1021.1 - 0.0
28/10:00am 15.7 12.5 5.3 50 5.0 SSE 11 19 6 10 1021.4 - 0.0
28/09:30am 14.8 10.6 5.9 55 4.3 SE 17 26 9 14 1021.6 - 0.0
28/09:00am 14.3 11.4 6.6 60 3.8 ESE 11 19 6 10 1021.5 1022.0 0.0
28/08:30am 12.9 11.6 5.8 62 3.4 SSE 2 7 1 4 1021.7 - 0.0
28/08:00am 11.1 7.1 6.5 73 2.2 S 17 24 9 13 1021.6 - 0.0
28/07:30am 10.4 6.7 6.4 76 1.9 S 15 20 8 11 1021.5 - 0.0
28/07:00am 9.6 6.3 6.3 80 1.5 S 13 19 7 10 1021.3 - 0.0
28/06:30am 8.6 4.9 6.4 86 1.0 S 15 22 8 12 1020.9 - 0.0
28/06:00am 8.3 3.3 6.3 87 0.9 SSE 22 33 12 18 1020.8 1021.3 0.0
28/05:30am 8.2 3.7 6.0 86 1.0 S 19 30 10 16 1020.2 - 0.0
28/05:00am 7.9 4.8 5.7 86 1.0 S 11 15 6 8 1019.9 - 0.0
28/04:30am 6.1 4.0 3.8 85 1.0 SSE 4 7 2 4 1019.7 - 0.0
28/04:00am 6.3 4.9 3.6 83 1.2 CALM 0 6 0 3 1019.5 - 0.0
28/03:30am 7.4 4.9 4.9 84 1.1 S 7 11 4 6 1019.6 - 0.0
28/03:00am 7.7 5.5 5.2 84 1.1 SSW 6 11 3 6 1019.6 1020.1 0.0
28/02:30am 8.1 5.6 5.0 81 1.4 SW 7 9 4 5 1019.8 - 0.0
28/02:00am 9.4 7.0 4.2 70 2.3 SSW 6 11 3 6 1019.9 - 0.0
28/01:30am 10.0 7.4 4.2 67 2.6 SSW 7 11 4 6 1020.4 - 0.0
28/01:00am 10.9 7.3 4.8 66 2.8 S 13 19 7 10 1020.6 - 0.0
28/12:30am 11.3 7.7 5.2 66 2.8 S 13 19 7 10 1021.0 - 0.0
28/12:00am 11.8 8.5 4.5 61 3.3 SSW 11 17 6 9 1021.2 1021.7 0.0
 
Date/Time
EDT
Temp
°C
App
Temp
°C
Dew
Point
Rel
Hum
%
Delta-T
°C
Wind Press
QNH
hPa
Press
MSL
hPa
Rain
since 9 am
mm
Dir
 
Spd
km/h
Gust
km/h
Spd
kts
Gust
kts
27/11:30pm 12.5 9.1 4.0 56 3.9 SSW 11 17 6 9 1021.5 - 0.0
27/11:00pm 13.4 9.8 2.9 49 4.7 S 11 17 6 9 1021.8 - 0.0
27/10:30pm 15.0 10.7 1.2 39 6.1 SSE 13 20 7 11 1021.7 - 0.0
27/10:00pm 16.2 11.5 1.1 36 6.7 SSE 15 20 8 11 1021.8 - 0.0
27/09:30pm 17.0 12.5 2.2 37 6.8 SSE 15 24 8 13 1021.6 - 0.0
27/09:00pm 17.8 12.8 1.3 33 7.4 SSE 17 24 9 13 1021.3 1021.8 0.0
27/08:30pm 18.8 13.4 1.3 31 8.0 SSE 19 33 10 18 1021.2 - 0.0
27/08:00pm 20.2 14.2 1.1 28 8.7 SSE 22 32 12 17 1021.0 - 0.0
27/07:30pm 21.4 16.0 2.2 28 9.1 SSE 20 32 11 17 1020.7 - 0.0
27/07:00pm 22.2 15.1 1.3 25 9.8 SSE 28 37 15 20 1020.3 - 0.0
27/06:30pm 22.9 15.7 0.7 23 10.3 SSE 28 37 15 20 1020.0 - 0.0
27/06:00pm 24.3 17.6 1.2 22 10.9 SSE 26 35 14 19 1020.0 1020.5 0.0
27/05:30pm 23.7 17.2 0.1 21 10.9 SSE 24 35 13 19 1020.2 - 0.0
27/05:00pm 24.3 17.4 -0.1 20 11.3 SSE 26 39 14 21 1020.3 - 0.0
27/04:30pm 24.4 18.7 0.7 21 11.1 SSE 20 32 11 17 1020.4 - 0.0
27/04:00pm 23.5 17.5 1.2 23 10.5 S 22 37 12 20 1020.8 - 0.0
27/03:30pm 22.7 16.1 -0.1 22 10.4 S 24 33 13 18 1020.9 - 0.0
27/03:00pm 23.5 18.2 1.8 24 10.3 S 19 30 10 16 1021.3 1021.8 0.0
27/02:30pm 22.3 17.5 2.4 27 9.5 SSE 17 33 9 18 1021.7 - 0.0
27/02:00pm 21.5 15.7 2.2 28 9.1 S 22 32 12 17 1022.0 - 0.0
27/01:30pm 21.2 15.4 2.5 29 8.9 S 22 32 12 17 1022.2 - 0.0
27/01:00pm 20.2 14.7 1.6 29 8.6 S 20 32 11 17 1022.8 - 0.0
27/12:30pm 20.0 14.8 3.7 34 7.8 S 20 30 11 16 1023.1 - 0.0
27/12:00pm 18.9 13.4 3.9 37 7.2 S 22 33 12 18 1023.4 1023.9 0.0
27/11:30am 17.8 12.6 3.7 39 6.7 S 20 33 11 18 1023.5 - 0.0
27/11:00am 16.7 11.1 3.4 41 6.2 S 22 37 12 20 1023.8 - 0.0
27/10:30am 15.5 9.3 4.2 47 5.3 SSE 26 32 14 17 1023.9 - 0.0
27/10:00am 14.5 8.3 4.5 51 4.7 SSE 26 35 14 19 1024.1 - 0.0
27/09:30am 13.5 7.0 4.9 56 4.0 S 28 37 15 20 1024.3 - 0.0
27/09:00am 12.5 6.5 5.2 61 3.4 S 26 33 14 18 1024.3 1024.8 0.0
27/08:30am 11.8 5.6 4.5 61 3.4 SSE 26 35 14 19 1024.3 - 0.0
27/08:16am 11.3 3.0 4.3 62 3.2 SSE 37 46 20 25 1024.2 - 0.0
27/08:00am 11.1 6.7 5.0 66 2.8 S 17 28 9 15 1024.1 - 0.0
27/07:30am 10.4 5.4 4.8 68 2.6 S 20 28 11 15 1023.7 - 0.0
27/07:00am 9.7 4.3 4.5 70 2.3 S 22 32 12 17 1023.6 - 0.0
27/06:30am 9.4 4.6 4.4 71 2.2 S 19 24 10 13 1023.5 - 0.0
27/06:00am 9.2 3.8 4.6 73 2.1 SSE 22 32 12 17 1023.2 1023.7 0.0
27/05:30am 9.2 4.5 5.0 75 1.9 SSE 19 28 10 15 1023.2 - 0.0
27/05:00am 9.1 4.2 5.3 77 1.7 SSE 20 30 11 16 1022.9 - 0.0
27/04:30am 9.4 4.8 5.6 77 1.8 SSE 19 28 10 15 1022.7 - 0.0
27/04:00am 9.9 4.7 5.3 73 2.1 SSE 22 28 12 15 1022.6 - 0.0
27/03:30am 10.3 5.8 6.1 75 2.0 S 19 35 10 19 1022.3 - 0.0
27/03:00am 10.9 7.3 6.6 75 2.0 S 15 20 8 11 1022.3 1022.9 0.0
27/02:30am 11.0 7.5 5.5 69 2.6 SSE 13 20 7 11 1022.3 - 0.0
27/02:00am 11.3 8.2 5.6 68 2.7 SSE 11 19 6 10 1022.7 - 0.0
27/01:30am 11.9 7.8 6.0 67 2.8 SSE 17 22 9 12 1022.8 - 0.0
27/01:00am 12.4 8.0 6.5 67 2.8 SSE 19 26 10 14 1023.0 - 0.0
27/12:30am 12.7 9.2 7.0 68 2.8 SSE 15 20 8 11 1023.2 - 0.0
27/12:00am 12.9 8.4 6.9 67 2.9 SSE 20 30 11 16 1023.4 1023.9 0.0
 
Date/Time
EDT
Temp
°C
App
Temp
°C
Dew
Point
Rel
Hum
%
Delta-T
°C
Wind Press
QNH
hPa
Press
MSL
hPa
Rain
since 9 am
mm
Dir
 
Spd
km/h
Gust
km/h
Spd
kts
Gust
kts
26/11:30pm 12.8 9.4 7.7 71 2.5 SSE 15 22 8 12 1023.3 - 0.0
26/11:00pm 12.8 8.7 7.9 72 2.4 S 19 28 10 15 1023.4 - 0.0
26/10:30pm 13.2 9.3 8.7 74 2.3 SSE 19 24 10 13 1023.2 - 0.0
26/10:00pm 13.6 9.2 8.9 73 2.4 SSE 22 32 12 17 1023.1 - 0.0
26/09:30pm 14.3 10.6 9.3 72 2.6 SSE 19 28 10 15 1022.6 - 0.0
26/09:00pm 14.9 10.8 10.1 73 2.5 S 22 32 12 17 1022.1 1022.7 0.0
26/08:30pm 14.9 11.0 10.7 76 2.2 S 22 32 12 17 1021.9 - 0.0
26/08:00pm 15.0 12.0 11.8 81 1.7 S 19 32 10 17 1021.8 - 0.0
26/07:30pm 14.9 11.1 12.4 85 1.4 S 24 35 13 19 1021.4 - 0.0
26/07:00pm 17.3 12.0 11.1 67 3.4 S 30 39 16 21 1020.8 - 0.0
26/06:30pm 17.7 12.9 11.5 67 3.4 S 28 37 15 20 1020.5 - 0.0
26/06:00pm 18.1 13.9 11.0 63 3.9 S 24 35 13 19 1020.4 1020.9 0.0
26/05:30pm 19.3 15.5 9.8 54 5.1 S 20 32 11 17 1020.3 - 0.0
26/05:00pm 19.6 15.6 9.2 51 5.5 S 20 26 11 14 1020.3 - 0.0
26/04:30pm 19.3 14.7 8.3 49 5.8 S 22 33 12 18 1020.3 - 0.0
26/04:00pm 20.6 16.3 7.9 44 6.7 SSW 20 35 11 19 1020.2 - 0.0
26/03:30pm 21.2 17.3 8.5 44 6.7 SSW 19 32 10 17 1020.3 - 0.0
26/03:00pm 20.8 16.1 7.8 43 6.8 SSW 22 35 12 19 1020.3 1020.8 0.0
26/02:30pm 19.7 16.8 8.1 47 6.1 S 13 20 7 11 1020.5 - 0.0
26/02:00pm 19.9 17.7 7.9 46 6.3 S 9 19 5 10 1020.6 - 0.0
26/01:30pm 19.7 16.6 7.4 45 6.3 SSW 13 26 7 14 1020.8 - 0.0
26/01:00pm 18.7 15.3 7.8 49 5.6 S 15 20 8 11 1020.9 - 0.0
26/12:30pm 18.2 15.9 7.3 49 5.6 SW 9 17 5 9 1021.1 - 0.0
26/12:00pm 18.3 15.3 7.7 50 5.4 SSE 13 24 7 13 1021.3 1021.8 0.0
26/11:30am 16.9 14.6 7.3 53 4.9 WSW 9 20 5 11 1021.3 - 0.0
26/11:00am 16.5 13.4 7.2 54 4.7 S 13 24 7 13 1021.4 - 0.0
26/10:30am 16.1 12.9 8.3 60 4.0 S 15 22 8 12 1021.4 - 0.0
26/10:00am 14.5 10.9 6.8 60 3.8 S 15 22 8 12 1021.4 - 0.0
26/09:30am 13.2 9.2 6.8 65 3.1 S 17 22 9 12 1021.2 - 0.0
26/09:00am 13.0 9.6 6.1 63 3.3 S 13 20 7 11 1021.2 1021.7 0.0
26/08:30am 12.5 10.9 6.5 67 2.9 SSW 4 9 2 5 1021.2 - 0.0
26/08:00am 11.2 9.7 6.9 75 2.1 SSW 4 9 2 5 1021.2 - 0.0
26/07:30am 9.7 8.3 7.1 84 1.2 NNW 4 6 2 3 1021.1 - 0.0
26/07:00am 8.0 6.5 6.9 93 0.5 E 4 6 2 3 1020.7 - 0.0
26/06:30am 7.1 6.2 5.9 92 0.5 CALM 0 0 0 0 1020.4 - 0.0
26/06:00am 7.3 6.4 6.1 92 0.5 CALM 0 0 0 0 1020.1 1020.6 0.0
26/05:30am 7.9 5.9 6.2 89 0.8 ESE 6 7 3 4 1019.8 - 0.0
26/05:00am 8.5 7.7 6.3 86 1.0 CALM 0 0 0 0 1019.5 - 0.0
26/04:30am 8.8 6.7 5.9 82 1.3 ESE 6 13 3 7 1019.5 - 0.0
26/04:00am 8.6 7.3 5.9 83 1.2 S 2 7 1 4 1019.4 - 0.0
26/03:30am 9.8 8.4 5.6 75 1.9 S 2 6 1 3 1019.6 - 0.0
26/03:00am 10.4 7.4 5.8 73 2.1 S 11 15 6 8 1019.6 1020.1 0.0
26/02:30am 10.2 7.9 5.8 74 2.1 S 7 11 4 6 1019.9 - 0.0
26/02:00am 10.7 8.5 6.3 74 2.1 SSE 7 11 4 6 1020.0 - 0.0
26/01:30am 10.6 8.7 6.7 77 1.9 SE 6 9 3 5 1020.3 - 0.0
26/01:00am 11.2 8.7 6.7 74 2.2 SE 9 13 5 7 1020.4 - 0.0
26/12:30am 11.6 8.4 6.7 72 2.4 SSE 13 19 7 10 1020.7 - 0.0
26/12:00am 11.9 8.4 7.0 72 2.4 SSE 15 20 8 11 1020.9 1021.4 0.0
 
Date/Time
EDT
Temp
°C
App
Temp
°C
Dew
Point
Rel
Hum
%
Delta-T
°C
Wind Press
QNH
hPa
Press
MSL
hPa
Rain
since 9 am
mm
Dir
 
Spd
km/h
Gust
km/h
Spd
kts
Gust
kts
25/11:30pm 12.3 8.8 7.0 70 2.6 SSE 15 26 8 14 1020.9 - 0.0
25/11:00pm 12.8 7.9 6.8 67 2.9 S 22 32 12 17 1020.9 - 0.0
25/10:30pm 13.6 9.3 6.9 64 3.3 S 19 26 10 14 1020.8 - 0.0
25/10:00pm 14.4 10.5 7.0 61 3.7 S 17 28 9 15 1020.5 - 0.0
25/09:30pm 15.2 10.6 5.7 53 4.6 S 19 28 10 15 1020.0 - 0.0
25/09:00pm 15.7 12.9 5.0 49 5.1 SSW 9 13 5 7 1019.8 1020.3 0.0
25/08:30pm 16.6 13.4 4.9 46 5.6 SW 11 17 6 9 1019.4 - 0.0
25/08:00pm 17.7 13.6 4.3 41 6.4 WSW 15 26 8 14 1019.2 - 0.0
25/07:30pm 18.9 14.6 3.5 36 7.3 WSW 15 22 8 12 1018.8 - 0.0
25/07:00pm 19.2 14.0 3.4 35 7.5 WSW 20 28 11 15 1018.6 - 0.0
25/06:30pm 19.8 14.8 3.5 34 7.8 WSW 19 30 10 16 1018.3 - 0.0
25/06:00pm 19.7 15.4 3.4 34 7.8 SW 15 26 8 14 1018.2 1018.6 0.0
25/05:30pm 20.1 15.4 2.9 32 8.2 WSW 17 30 9 16 1018.2 - 0.0
25/05:00pm 20.4 15.4 3.6 33 8.1 WSW 19 30 10 16 1018.3 - 0.0
25/04:30pm 19.7 15.3 2.6 32 8.0 W 15 28 8 15 1018.3 - 0.0
25/04:00pm 20.3 16.1 3.9 34 7.9 WSW 15 26 8 14 1018.4 - 0.0
25/03:30pm 18.7 13.6 3.3 36 7.3 W 19 32 10 17 1018.5 - 0.0
25/03:00pm 20.0 15.6 4.5 36 7.6 WSW 17 28 9 15 1018.6 1019.1 0.0
25/02:30pm 18.6 14.3 3.3 36 7.2 WSW 15 28 8 15 1018.8 - 0.0
25/02:00pm 17.6 12.4 3.5 39 6.6 WSW 20 32 11 17 1019.2 - 0.0
25/01:30pm 18.2 12.8 4.4 40 6.6 SW 22 28 12 15 1019.1 - 0.0
25/01:00pm 17.9 14.0 5.2 43 6.2 WSW 15 24 8 13 1019.1 - 0.0
25/12:30pm 17.7 13.4 5.3 44 6.1 SW 17 24 9 13 1019.3 - 0.0
25/12:00pm 17.4 12.4 4.4 42 6.2 WSW 20 32 11 17 1019.3 1019.8 0.0
25/11:30am 16.4 12.1 5.4 48 5.3 WSW 17 26 9 14 1019.4 - 0.0

Other Formats:

Comma delimited format used in spreadsheet applications
http://www.bom.gov.au/fwo/IDV60801/IDV60801.94836.axf

JavaScript Object Notation format (JSON) in row-major order
http://www.bom.gov.au/fwo/IDV60801/IDV60801.94836.json